createdAt,value
2018-11-02T00:02:06.273Z,79.81
2018-11-02T00:04:38.169Z,79.88
2018-11-02T00:07:08.732Z,79.57
2018-11-02T00:09:54.412Z,80.34
2018-11-02T00:12:25.306Z,80.06
2018-11-02T00:14:56.303Z,80.49
2018-11-02T00:17:26.915Z,80.04
2018-11-02T00:19:57.514Z,79.55
2018-11-02T00:22:28.285Z,79.44
2018-11-02T00:24:59.072Z,80.00
2018-11-02T00:27:29.896Z,79.84
2018-11-02T00:30:00.686Z,80.39
2018-11-02T00:32:31.349Z,79.52
2018-11-02T00:35:02.192Z,79.71
2018-11-02T00:37:32.999Z,80.30
2018-11-02T00:40:04.224Z,80.78
2018-11-02T00:42:35.341Z,80.89
2018-11-02T00:45:08.569Z,81.23
2018-11-02T00:47:39.168Z,80.97
2018-11-02T00:50:12.032Z,81.99
2018-11-02T00:52:42.825Z,82.15
2018-11-02T00:55:13.784Z,81.25
2018-11-02T00:57:44.368Z,82.08
2018-11-02T01:00:15.787Z,82.70
2018-11-02T01:02:46.372Z,83.17
2018-11-02T01:05:17.292Z,82.20
2018-11-02T01:07:48.456Z,82.62
2018-11-02T01:10:19.292Z,82.38
2018-11-02T01:12:50.356Z,83.03
2018-11-02T01:15:21.101Z,81.84
2018-11-02T01:17:51.996Z,81.35
2018-11-02T01:20:23.016Z,82.46
2018-11-02T01:22:53.695Z,82.21
2018-11-02T01:25:26.224Z,82.52
2018-11-02T01:27:57.983Z,82.38
2018-11-02T01:30:31.140Z,81.56
2018-11-02T01:33:02.898Z,81.80
2018-11-02T01:35:34.626Z,82.02
2018-11-02T01:38:05.944Z,81.97
2018-11-02T01:40:37.438Z,81.20
2018-11-02T01:43:08.439Z,81.43
2018-11-02T01:45:39.067Z,81.72
2018-11-02T01:48:09.896Z,82.03
2018-11-02T01:50:42.599Z,81.11
2018-11-02T01:53:13.420Z,81.45
2018-11-02T01:55:44.360Z,81.25
2018-11-02T01:58:15.072Z,81.00
2018-11-02T02:00:45.863Z,81.20
2018-11-02T02:03:16.770Z,80.82
2018-11-02T02:05:47.598Z,81.37
2018-11-02T02:08:19.070Z,80.50
2018-11-02T02:10:49.901Z,80.92
2018-11-02T02:13:20.846Z,81.46
2018-11-02T02:15:51.847Z,82.01
2018-11-02T02:18:22.486Z,80.88
2018-11-02T02:20:53.552Z,80.83
2018-11-02T02:23:24.396Z,80.74
2018-11-02T02:25:55.532Z,81.13
2018-11-02T02:28:27.268Z,80.23
2018-11-02T02:30:58.437Z,80.30
2018-11-02T02:33:29.337Z,81.07
2018-11-02T02:36:01.445Z,81.72
2018-11-02T02:38:32.322Z,81.22
2018-11-02T02:41:03.325Z,80.51
2018-11-02T02:43:34.445Z,80.95
2018-11-02T02:46:05.795Z,81.21
2018-11-02T02:48:36.423Z,81.36
2018-11-02T02:51:08.292Z,80.70
2018-11-02T02:53:40.149Z,81.09
2018-11-02T02:56:11.741Z,80.70
2018-11-02T02:58:44.320Z,81.06
2018-11-02T03:01:15.541Z,81.66
2018-11-02T03:03:46.901Z,81.05
2018-11-02T03:06:19.107Z,81.99
2018-11-02T03:08:49.752Z,82.33
2018-11-02T03:11:21.758Z,81.19
2018-11-02T03:13:52.747Z,81.37
2018-11-02T03:16:23.571Z,81.40
2018-11-02T03:18:54.661Z,81.24
2018-11-02T03:21:25.551Z,80.48
2018-11-02T03:23:56.333Z,81.16
2018-11-02T03:26:27.423Z,82.53
2018-11-02T03:28:58.321Z,82.29
2018-11-02T03:31:29.509Z,81.50
2018-11-02T03:34:00.688Z,80.90
2018-11-02T03:36:31.701Z,81.38
2018-11-02T03:39:02.531Z,81.82
2018-11-02T03:41:33.686Z,82.19
2018-11-02T03:44:04.924Z,82.42
2018-11-02T03:46:35.802Z,82.18
2018-11-02T03:49:07.953Z,82.41
2018-11-02T03:51:39.163Z,81.74
2018-11-02T03:54:10.141Z,81.39
2018-11-02T03:56:41.380Z,81.32
2018-11-02T03:59:12.784Z,80.79
2018-11-02T04:01:44.049Z,81.32
2018-11-02T04:04:15.339Z,81.78
2018-11-02T04:06:47.932Z,82.29
2018-11-02T04:09:19.074Z,82.49
2018-11-02T04:11:50.092Z,82.18
2018-11-02T04:14:21.973Z,81.99
2018-11-02T04:16:54.651Z,82.17
2018-11-02T04:19:27.550Z,82.69
2018-11-02T04:21:59.590Z,82.71
2018-11-02T04:24:31.827Z,82.21
2018-11-02T04:27:02.648Z,81.60
2018-11-02T04:29:33.731Z,80.74
2018-11-02T04:32:04.826Z,81.01
2018-11-02T04:34:35.988Z,81.01
2018-11-02T04:37:07.237Z,81.32
2018-11-02T04:39:38.344Z,81.40
2018-11-02T04:42:09.402Z,81.51
2018-11-02T04:44:40.441Z,80.89
2018-11-02T04:47:11.589Z,81.65
2018-11-02T04:49:42.827Z,81.90
2018-11-02T04:52:13.964Z,80.49
2018-11-02T04:54:45.029Z,80.21
2018-11-02T04:57:16.073Z,81.10
2018-11-02T04:59:47.308Z,80.60
2018-11-02T05:02:18.340Z,80.96
2018-11-02T05:04:49.501Z,81.62
2018-11-02T05:07:20.700Z,79.66
2018-11-02T05:09:51.951Z,80.28
2018-11-02T05:12:23.104Z,80.00
2018-11-02T05:14:54.152Z,80.89
2018-11-02T05:17:25.188Z,79.39
2018-11-02T05:19:56.372Z,80.58
2018-11-02T05:22:27.466Z,81.32
2018-11-02T05:24:58.768Z,81.75
2018-11-02T05:27:29.884Z,80.29
2018-11-02T05:30:01.132Z,80.61
2018-11-02T05:32:32.055Z,81.22
2018-11-02T05:35:03.607Z,80.56
2018-11-02T05:37:34.424Z,79.34
2018-11-02T05:40:08.087Z,79.80
2018-11-02T05:42:40.692Z,80.62
2018-11-02T05:45:11.752Z,80.33
2018-11-02T05:47:43.816Z,79.79
2018-11-02T05:50:15.427Z,80.53
2018-11-02T05:52:46.506Z,81.69
2018-11-02T05:55:17.587Z,81.43
2018-11-02T05:57:48.653Z,81.37
2018-11-02T06:00:19.767Z,82.20
2018-11-02T06:02:50.830Z,81.48
2018-11-02T06:05:21.748Z,81.63
2018-11-02T06:07:52.727Z,82.06
2018-11-02T06:10:23.667Z,81.83
2018-11-02T06:12:54.772Z,82.14
2018-11-02T06:15:25.843Z,82.39
2018-11-02T06:17:56.953Z,82.04
2018-11-02T06:20:28.361Z,82.44
2018-11-02T06:22:59.543Z,81.81
2018-11-02T06:25:30.569Z,81.90
2018-11-02T06:28:01.755Z,82.95
2018-11-02T06:30:32.609Z,81.95
2018-11-02T06:33:03.837Z,82.89
2018-11-02T06:35:35.136Z,83.02
2018-11-02T06:38:06.753Z,83.09
2018-11-02T06:40:38.052Z,82.89
2018-11-02T06:43:10.220Z,82.77
2018-11-02T06:45:41.440Z,82.76
2018-11-02T06:48:12.580Z,82.77
2018-11-02T06:50:44.198Z,82.61
2018-11-02T06:53:15.256Z,81.56
2018-11-02T06:55:48.200Z,81.60
2018-11-02T06:58:18.879Z,82.49
2018-11-02T07:00:49.406Z,81.13
2018-11-02T07:03:20.802Z,80.17
2018-11-02T07:05:52.273Z,79.72
2018-11-02T07:08:23.859Z,79.37
2018-11-02T07:10:55.020Z,79.96
2018-11-02T07:13:27.556Z,79.96
2018-11-02T07:15:58.767Z,80.86
2018-11-02T07:18:29.889Z,80.90
2018-11-02T07:21:01.019Z,80.77
2018-11-02T07:23:31.932Z,81.71
2018-11-02T07:26:02.981Z,81.80
2018-11-02T07:28:35.227Z,80.90
2018-11-02T07:31:07.951Z,81.62
2018-11-02T07:33:39.316Z,81.37
2018-11-02T07:36:10.033Z,81.75
2018-11-02T07:39:03.084Z,81.19
2018-11-02T07:41:39.352Z,80.72
2018-11-02T07:44:10.127Z,81.23
2018-11-02T07:46:41.599Z,81.30
2018-11-02T07:49:12.176Z,80.22
2018-11-02T07:51:42.722Z,79.60
2018-11-02T07:54:14.267Z,80.87
2018-11-02T07:56:44.974Z,79.35
2018-11-02T07:59:15.760Z,79.68
2018-11-02T08:01:47.294Z,80.29
2018-11-02T08:04:19.056Z,80.21
2018-11-02T08:06:50.356Z,81.19
2018-11-02T08:09:21.300Z,80.18
2018-11-02T08:11:52.137Z,81.26
2018-11-02T08:14:22.949Z,80.35
2018-11-02T08:16:53.746Z,80.31
2018-11-02T08:19:24.303Z,79.98
2018-11-02T08:21:54.881Z,80.17
2018-11-02T08:24:25.819Z,79.40
2018-11-02T08:26:57.004Z,79.21
2018-11-02T08:29:28.310Z,78.97
2018-11-02T08:31:58.988Z,80.07
2018-11-02T08:34:29.957Z,79.72
2018-11-02T08:37:00.768Z,79.02
2018-11-02T08:39:31.833Z,79.26
2018-11-02T08:42:03.799Z,79.16
2018-11-02T08:44:40.080Z,77.35
2018-11-02T08:47:12.497Z,75.84
2018-11-02T08:49:44.068Z,75.43
2018-11-02T08:52:15.295Z,75.69
2018-11-02T08:54:46.189Z,75.92
2018-11-02T08:57:17.917Z,75.44
2018-11-02T08:59:48.581Z,75.07
2018-11-02T09:02:19.535Z,75.30
2018-11-02T09:04:50.277Z,75.07
2018-11-02T09:07:21.116Z,73.55
2018-11-02T09:09:51.918Z,72.82
2018-11-02T09:12:22.780Z,73.67
2018-11-02T09:14:53.549Z,73.50
2018-11-02T09:17:24.171Z,74.60
2018-11-02T09:19:55.012Z,75.00
2018-11-02T09:22:25.881Z,74.22
2018-11-02T09:24:56.612Z,73.57
2018-11-02T09:27:27.289Z,72.12
2018-11-02T09:29:58.092Z,71.97
2018-11-02T09:32:30.155Z,71.26
2018-11-02T09:35:00.782Z,71.34
2018-11-02T09:37:31.934Z,71.39
2018-11-02T09:40:02.721Z,71.37
2018-11-02T09:42:33.522Z,71.74
2018-11-02T09:45:06.359Z,71.19
2018-11-02T09:47:37.203Z,71.35
2018-11-02T09:50:09.192Z,71.61
2018-11-02T09:52:40.273Z,71.11
2018-11-02T09:55:13.337Z,70.81
2018-11-02T09:57:46.473Z,71.13
2018-11-02T10:00:17.630Z,70.57
2018-11-02T10:02:51.931Z,70.33
2018-11-02T10:05:23.518Z,70.52
2018-11-02T10:07:55.558Z,71.65
2018-11-02T10:10:26.435Z,71.30
2018-11-02T10:12:57.313Z,70.41
2018-11-02T10:15:30.427Z,70.99
2018-11-02T10:18:01.653Z,71.23
2018-11-02T10:20:32.595Z,70.35
2018-11-02T10:23:03.880Z,69.98
2018-11-02T10:25:34.584Z,69.59
2018-11-02T10:28:09.568Z,69.61
2018-11-02T10:30:40.475Z,68.76
2018-11-02T10:33:11.142Z,67.81
2018-11-02T10:35:42.496Z,67.99
2018-11-02T10:38:14.168Z,68.48
2018-11-02T10:40:49.703Z,67.25
2018-11-02T10:43:21.424Z,66.73
2018-11-02T10:46:00.787Z,66.58
2018-11-02T10:48:33.908Z,65.77
2018-11-02T10:51:05.304Z,65.54
2018-11-02T10:53:36.796Z,65.83
2018-11-02T10:56:07.628Z,64.24
2018-11-02T10:58:41.328Z,64.10
2018-11-02T11:01:17.284Z,64.78
2018-11-02T11:03:48.052Z,65.25
2018-11-02T11:06:19.687Z,65.04
2018-11-02T11:08:50.660Z,65.33
2018-11-02T11:11:21.663Z,65.77
2018-11-02T11:13:52.204Z,65.94
2018-11-02T11:16:23.030Z,65.19
2018-11-02T11:18:53.780Z,65.39
2018-11-02T11:21:25.210Z,65.05
2018-11-02T11:23:56.363Z,65.32
2018-11-02T11:26:27.205Z,64.46
2018-11-02T11:28:58.326Z,63.62
2018-11-02T11:31:29.204Z,64.10
2018-11-02T11:34:00.704Z,64.55
2018-11-02T11:36:31.659Z,65.91
2018-11-02T11:39:02.819Z,65.02
2018-11-02T11:41:34.646Z,64.67
2018-11-02T11:44:06.435Z,64.88
2018-11-02T11:46:39.769Z,64.55
2018-11-02T11:49:13.556Z,65.08
2018-11-02T11:51:45.580Z,65.35
2018-11-02T11:54:16.489Z,65.75
2018-11-02T11:56:47.344Z,66.72
2018-11-02T11:59:18.169Z,66.40
2018-11-02T12:01:49.023Z,66.96
2018-11-02T12:04:20.072Z,65.86
2018-11-02T12:06:52.705Z,66.24
2018-11-02T12:09:23.731Z,66.41
2018-11-02T12:11:55.087Z,66.38
2018-11-02T12:14:26.297Z,66.09
2018-11-02T12:16:57.499Z,66.41
2018-11-02T12:19:28.364Z,66.06
2018-11-02T12:21:59.456Z,66.15
2018-11-02T12:24:30.419Z,66.29
2018-11-02T12:27:01.448Z,66.42
2018-11-02T12:29:32.403Z,66.75
2018-11-02T12:32:03.476Z,66.76
2018-11-02T12:34:35.534Z,66.77
2018-11-02T12:37:06.756Z,67.02
2018-11-02T12:39:41.216Z,67.11
2018-11-02T12:42:12.616Z,67.08
2018-11-02T12:44:47.394Z,67.74
2018-11-02T12:47:18.512Z,67.30
2018-11-02T12:49:49.930Z,67.65
2018-11-02T12:52:20.993Z,67.78
2018-11-02T12:54:52.160Z,67.73
2018-11-02T12:57:26.008Z,68.22
2018-11-02T13:00:00.706Z,68.49
2018-11-02T13:02:32.817Z,68.52
2018-11-02T13:05:03.893Z,68.54
2018-11-02T13:07:34.699Z,68.52
2018-11-02T13:10:08.756Z,68.48
2018-11-02T13:12:39.870Z,68.42
2018-11-02T13:15:13.095Z,68.62
2018-11-02T13:17:44.804Z,68.40
2018-11-02T13:20:15.916Z,67.92
2018-11-02T13:22:47.764Z,67.82
2018-11-02T13:25:19.988Z,68.01
2018-11-02T13:27:52.972Z,68.19
2018-11-02T13:30:25.177Z,68.20
2018-11-02T13:32:58.848Z,68.87
2018-11-02T13:35:29.972Z,68.51
2018-11-02T13:38:04.361Z,68.00
2018-11-02T13:40:35.790Z,68.06
2018-11-02T13:43:08.989Z,67.52
2018-11-02T13:45:40.115Z,67.24
2018-11-02T13:48:11.116Z,67.91
2018-11-02T13:50:42.183Z,67.47
2018-11-02T13:53:13.033Z,66.66
2018-11-02T13:55:45.107Z,66.75
2018-11-02T13:58:16.092Z,67.26
2018-11-02T14:00:47.353Z,67.77
2018-11-02T14:03:18.203Z,68.13
2018-11-02T14:05:49.040Z,67.11
2018-11-02T14:08:23.210Z,67.23
2018-11-02T14:10:53.943Z,67.31
2018-11-02T14:13:24.933Z,67.06
2018-11-02T14:15:55.849Z,67.22
2018-11-02T14:18:27.907Z,67.22
2018-11-02T14:20:59.012Z,67.87
2018-11-02T14:23:33.797Z,68.24
2018-11-02T14:26:07.721Z,68.26
2018-11-02T14:28:41.404Z,68.17
2018-11-02T14:31:14.798Z,67.81
2018-11-02T14:33:45.628Z,67.92
2018-11-02T14:36:17.421Z,67.97
2018-11-02T14:38:48.336Z,67.93
2018-11-02T14:41:21.611Z,68.38
2018-11-02T14:43:52.437Z,68.95
2018-11-02T14:46:26.396Z,68.78
2018-11-02T14:48:57.209Z,69.03
2018-11-02T14:51:28.213Z,69.32
2018-11-02T14:53:59.196Z,69.21
2018-11-02T14:56:30.424Z,69.61
2018-11-02T14:59:01.476Z,70.14
2018-11-02T15:01:33.995Z,70.19
2018-11-02T15:04:05.272Z,70.09
2018-11-02T15:06:39.896Z,70.09
2018-11-02T15:09:12.752Z,70.27
2018-11-02T15:11:43.893Z,70.45
2018-11-02T15:14:16.021Z,70.36
2018-11-02T15:16:48.508Z,70.57
2018-11-02T15:19:19.337Z,69.97
2018-11-02T15:21:51.069Z,70.87
2018-11-02T15:24:21.913Z,70.95
2018-11-02T15:26:57.775Z,70.87
2018-11-02T15:29:28.596Z,70.83
2018-11-02T15:32:00.131Z,70.75
2018-11-02T15:34:31.020Z,70.73
2018-11-02T15:37:02.608Z,71.04
2018-11-02T15:39:33.607Z,70.87
2018-11-02T15:42:04.420Z,70.31
2018-11-02T15:44:35.523Z,71.18
2018-11-02T15:47:07.122Z,71.21
2018-11-02T15:49:38.413Z,71.57
2018-11-02T15:52:09.200Z,71.83
2018-11-02T15:54:40.234Z,71.99
2018-11-02T15:57:11.061Z,71.84
2018-11-02T15:59:41.963Z,71.23
2018-11-02T16:02:13.640Z,70.78
2018-11-02T16:04:44.905Z,71.56
2018-11-02T16:07:15.836Z,71.82
2018-11-02T16:09:47.376Z,71.60
2018-11-02T16:12:19.036Z,71.63
2018-11-02T16:14:50.615Z,71.81
2018-11-02T16:17:22.228Z,71.73
2018-11-02T16:19:53.743Z,71.88
2018-11-02T16:22:25.063Z,71.93
2018-11-02T16:24:56.192Z,72.52
2018-11-02T16:27:29.313Z,72.91
2018-11-02T16:30:01.147Z,72.39
2018-11-02T16:32:31.985Z,72.78
2018-11-02T16:35:03.311Z,73.25
2018-11-02T16:37:34.179Z,73.05
2018-11-02T16:40:06.313Z,73.10
2018-11-02T16:42:37.252Z,73.00
2018-11-02T16:45:10.992Z,73.05
2018-11-02T16:47:42.256Z,73.41
2018-11-02T16:50:14.453Z,73.37
2018-11-02T16:52:45.730Z,74.07
2018-11-02T16:55:16.651Z,73.98
2018-11-02T16:57:47.712Z,73.93
2018-11-02T17:00:19.562Z,73.58
2018-11-02T17:02:50.356Z,74.22
2018-11-02T17:05:21.340Z,74.42
2018-11-02T17:07:52.252Z,74.44
2018-11-02T17:10:23.215Z,74.38
2018-11-02T17:12:53.871Z,74.32
2018-11-02T17:15:24.875Z,74.33
2018-11-02T17:17:55.732Z,74.80
2018-11-02T17:20:26.644Z,74.88
2018-11-02T17:22:57.554Z,75.04
2018-11-02T17:25:28.488Z,74.76
2018-11-02T17:27:59.849Z,74.64
2018-11-02T17:30:30.962Z,75.06
2018-11-02T17:33:04.282Z,75.47
2018-11-02T17:35:35.893Z,75.82
2018-11-02T17:38:08.667Z,75.62
2018-11-02T17:40:40.051Z,75.85
2018-11-02T17:43:13.232Z,76.23
2018-11-02T17:45:48.441Z,76.39
2018-11-02T17:48:19.303Z,76.34
2018-11-02T17:50:50.009Z,76.47
2018-11-02T17:53:20.824Z,76.64
2018-11-02T17:55:51.576Z,76.51
2018-11-02T17:58:25.760Z,76.84
2018-11-02T18:00:56.876Z,77.08
2018-11-02T18:03:27.904Z,77.04
2018-11-02T18:05:58.824Z,77.13
2018-11-02T18:08:29.863Z,77.43
2018-11-02T18:11:00.675Z,77.65
2018-11-02T18:13:31.484Z,77.31
2018-11-02T18:16:02.430Z,77.41
2018-11-02T18:18:33.275Z,77.44
2018-11-02T18:21:04.296Z,77.90
2018-11-02T18:23:35.275Z,77.65
2018-11-02T18:26:06.867Z,77.88
2018-11-02T18:28:37.964Z,78.00
2018-11-02T18:31:09.510Z,77.87
2018-11-02T18:33:42.670Z,78.37
2018-11-02T18:36:13.741Z,78.25
2018-11-02T18:38:45.361Z,78.01
2018-11-02T18:41:18.382Z,78.36
2018-11-02T18:43:52.389Z,77.87
2018-11-02T18:46:24.643Z,77.97
2018-11-02T18:48:55.479Z,78.37
2018-11-02T18:51:27.360Z,78.67
2018-11-02T18:53:58.196Z,78.50
2018-11-02T18:56:28.843Z,78.69
2018-11-02T18:59:01.284Z,79.01
2018-11-02T19:01:32.091Z,78.21
2018-11-02T19:04:02.984Z,78.28
2018-11-02T19:06:34.020Z,78.98
2018-11-02T19:09:08.940Z,78.93
2018-11-02T19:11:39.984Z,78.86
2018-11-02T19:14:10.796Z,78.69
2018-11-02T19:16:41.861Z,78.57
2018-11-02T19:19:12.681Z,78.87
2018-11-02T19:21:44.008Z,79.33
2018-11-02T19:24:14.969Z,79.33
2018-11-02T19:26:45.942Z,79.19
2018-11-02T19:29:21.067Z,79.17
2018-11-02T19:31:56.720Z,79.17
2018-11-02T19:34:27.742Z,79.02
2018-11-02T19:36:59.634Z,78.94
2018-11-02T19:39:31.256Z,79.09
2018-11-02T19:42:02.388Z,79.61
2018-11-02T19:44:33.116Z,79.53
2018-11-02T19:47:04.239Z,79.45
2018-11-02T19:49:35.077Z,79.93
2018-11-02T19:52:06.277Z,79.25
2018-11-02T19:54:37.190Z,79.36
2018-11-02T19:57:07.959Z,79.86
2018-11-02T19:59:38.964Z,79.64
2018-11-02T20:02:11.508Z,79.90
2018-11-02T20:04:42.088Z,80.42
2018-11-02T20:07:13.127Z,80.19
2018-11-02T20:09:43.876Z,79.82
2018-11-02T20:12:14.773Z,79.38
2018-11-02T20:14:45.688Z,79.74
2018-11-02T20:17:16.535Z,79.96
2018-11-02T20:19:47.405Z,79.70
2018-11-02T20:22:17.793Z,80.23
2018-11-02T20:24:50.297Z,79.85
2018-11-02T20:27:21.288Z,79.50
2018-11-02T20:29:52.323Z,79.67
2018-11-02T20:32:23.444Z,79.43
2018-11-02T20:34:54.352Z,79.42
2018-11-02T20:37:25.393Z,80.32
2018-11-02T20:39:56.141Z,80.17
2018-11-02T20:42:27.084Z,80.19
2018-11-02T20:44:57.771Z,79.81
2018-11-02T20:47:32.772Z,80.12
2018-11-02T20:50:07.577Z,80.50
2018-11-02T20:52:41.246Z,80.76
2018-11-02T20:55:13.695Z,80.32
2018-11-02T20:57:44.536Z,80.58
2018-11-02T21:00:17.316Z,80.60
2018-11-02T21:02:48.255Z,80.38
2018-11-02T21:05:20.109Z,80.31
2018-11-02T21:07:52.017Z,79.64
2018-11-02T21:10:23.283Z,79.47
2018-11-02T21:12:54.589Z,79.86
2018-11-02T21:15:26.114Z,80.24
2018-11-02T21:17:57.225Z,80.45
2018-11-02T21:20:28.297Z,80.62
2018-11-02T21:22:59.175Z,79.79
2018-11-02T21:25:30.128Z,80.13
2018-11-02T21:28:01.029Z,80.82
2018-11-02T21:30:31.981Z,80.77
2018-11-02T21:33:03.021Z,80.45
2018-11-02T21:35:33.863Z,79.87
2018-11-02T21:38:04.815Z,80.04
2018-11-02T21:40:35.936Z,80.07
2018-11-02T21:43:06.915Z,80.51
2018-11-02T21:45:38.797Z,80.14
2018-11-02T21:48:11.101Z,79.84
2018-11-02T21:50:42.166Z,79.79
2018-11-02T21:53:13.608Z,79.98
2018-11-02T21:55:44.662Z,80.20
2018-11-02T21:58:16.755Z,78.63
2018-11-02T22:00:47.789Z,79.47
2018-11-02T22:03:19.509Z,80.08
2018-11-02T22:05:54.101Z,80.53
2018-11-02T22:08:26.563Z,80.75
2018-11-02T22:10:57.437Z,81.20
2018-11-02T22:13:28.477Z,79.85
2018-11-02T22:15:59.208Z,79.80
2018-11-02T22:18:30.267Z,79.44
2018-11-02T22:21:07.668Z,79.03
2018-11-02T22:23:38.500Z,79.50
2018-11-02T22:26:09.603Z,79.48
2018-11-02T22:28:43.925Z,79.66
2018-11-02T22:31:17.315Z,80.79
2018-11-02T22:33:49.262Z,80.82
2018-11-02T22:36:21.681Z,81.00
2018-11-02T22:38:52.914Z,81.00
2018-11-02T22:41:24.261Z,81.16
2018-11-02T22:43:56.229Z,80.67
2018-11-02T22:46:27.600Z,80.66
2018-11-02T22:49:01.040Z,80.53
2018-11-02T22:51:32.887Z,80.14
2018-11-02T22:54:04.090Z,80.88
2018-11-02T22:56:34.871Z,81.03
2018-11-02T22:59:05.550Z,81.63
2018-11-02T23:01:36.531Z,81.85
2018-11-02T23:04:07.435Z,81.93
2018-11-02T23:06:38.684Z,81.27
2018-11-02T23:09:10.779Z,80.74
2018-11-02T23:11:41.644Z,80.70
2018-11-02T23:14:12.616Z,80.92
2018-11-02T23:16:43.608Z,81.81
2018-11-02T23:19:14.548Z,82.12
2018-11-02T23:21:45.350Z,82.12
2018-11-02T23:24:16.327Z,82.75
2018-11-02T23:26:47.179Z,82.17
2018-11-02T23:29:18.005Z,82.48
2018-11-02T23:31:49.028Z,81.79
2018-11-02T23:34:19.885Z,82.03
2018-11-02T23:36:51.850Z,81.83
2018-11-02T23:39:22.755Z,82.47
2018-11-02T23:41:53.725Z,82.09
2018-11-02T23:44:24.763Z,82.49
2018-11-02T23:46:55.592Z,82.62
2018-11-02T23:49:26.411Z,82.52
2018-11-02T23:51:57.631Z,83.10
2018-11-02T23:54:28.499Z,82.56
2018-11-02T23:57:00.492Z,83.00
2018-11-02T23:59:31.764Z,82.60
